createdAt,value
2022-08-22T00:00:13.389Z,99.90
2022-08-22T00:02:45.629Z,99.80
2022-08-22T00:06:02.396Z,99.90
2022-08-22T00:08:42.677Z,99.90
2022-08-22T00:11:25.083Z,99.90
2022-08-22T00:14:02.202Z,99.90
2022-08-22T00:16:42.564Z,99.90
2022-08-22T00:19:26.088Z,99.90
2022-08-22T00:22:03.250Z,99.90
2022-08-22T00:24:41.080Z,99.90
2022-08-22T00:27:16.753Z,99.90
2022-08-22T00:29:51.298Z,99.90
2022-08-22T00:32:31.471Z,99.90
2022-08-22T00:35:05.940Z,99.90
2022-08-22T00:37:42.533Z,99.90
2022-08-22T00:40:30.942Z,99.90
2022-08-22T00:43:30.191Z,99.90
2022-08-22T00:46:42.754Z,99.90
2022-08-22T00:49:43.288Z,99.90
2022-08-22T00:53:19.210Z,99.90
2022-08-22T00:56:09.925Z,99.90
2022-08-22T00:59:22.717Z,99.90
2022-08-22T01:02:09.869Z,99.90
2022-08-22T01:05:03.722Z,99.90
2022-08-22T01:07:55.398Z,99.90
2022-08-22T01:10:50.625Z,99.90
2022-08-22T01:13:44.846Z,99.90
2022-08-22T01:16:34.372Z,99.90
2022-08-22T01:19:38.551Z,99.90
2022-08-22T01:26:32.522Z,99.90
2022-08-22T01:30:01.662Z,99.90
2022-08-22T01:33:42.480Z,99.90
2022-08-22T01:37:08.345Z,99.90
2022-08-22T01:40:29.125Z,99.90
2022-08-22T01:43:20.475Z,99.90
2022-08-22T01:46:32.519Z,99.90
2022-08-22T01:49:19.019Z,99.90
2022-08-22T01:51:54.692Z,99.90
2022-08-22T01:54:38.440Z,99.90
2022-08-22T01:57:10.151Z,99.90
2022-08-22T01:59:43.145Z,99.90
2022-08-22T02:02:43.662Z,99.90
2022-08-22T02:05:26.505Z,99.90
2022-08-22T02:08:04.963Z,99.90
2022-08-22T02:10:56.246Z,99.90
2022-08-22T02:13:46.172Z,99.90
2022-08-22T02:16:21.134Z,99.90
2022-08-22T02:19:19.211Z,99.90
2022-08-22T02:21:56.754Z,99.90
2022-08-22T02:24:39.947Z,99.90
2022-08-22T02:27:27.105Z,99.90
2022-08-22T02:30:06.794Z,99.90
2022-08-22T02:32:50.610Z,99.90
2022-08-22T02:35:28.599Z,99.90
2022-08-22T02:38:09.083Z,99.90
2022-08-22T02:40:42.902Z,99.90
2022-08-22T02:43:21.047Z,99.90
2022-08-22T02:45:56.975Z,99.90
2022-08-22T02:48:40.759Z,99.90
2022-08-22T02:51:20.071Z,99.90
2022-08-22T02:54:10.692Z,99.90
2022-08-22T02:56:46.767Z,99.90
2022-08-22T02:59:31.003Z,99.90
2022-08-22T03:02:24.255Z,99.90
2022-08-22T03:04:56.402Z,99.90
2022-08-22T03:07:37.551Z,99.90
2022-08-22T03:10:19.515Z,99.90
2022-08-22T03:13:02.076Z,99.90
2022-08-22T03:15:40.516Z,99.90
2022-08-22T03:18:26.085Z,99.90
2022-08-22T03:21:01.055Z,99.90
2022-08-22T03:23:43.911Z,99.90
2022-08-22T03:26:19.246Z,99.90
2022-08-22T03:28:54.391Z,99.90
2022-08-22T03:31:32.416Z,99.90
2022-08-22T03:34:24.749Z,99.90
2022-08-22T03:37:12.754Z,99.90
2022-08-22T03:39:52.264Z,99.90
2022-08-22T03:43:29.609Z,99.90
2022-08-22T03:46:57.355Z,99.90
2022-08-22T03:49:59.864Z,99.90
2022-08-22T03:53:26.003Z,99.90
2022-08-22T03:56:45.398Z,99.90
2022-08-22T03:59:53.596Z,99.90
2022-08-22T04:03:23.391Z,99.90
2022-08-22T04:06:19.779Z,99.90
2022-08-22T04:09:32.177Z,99.90
2022-08-22T04:12:31.086Z,99.90
2022-08-22T04:15:38.477Z,99.90
2022-08-22T04:18:48.716Z,99.90
2022-08-22T04:21:47.948Z,99.90
2022-08-22T04:24:57.502Z,99.90
2022-08-22T04:27:31.340Z,99.90
2022-08-22T04:30:08.482Z,99.90
2022-08-22T04:32:42.701Z,99.90
2022-08-22T04:35:19.585Z,99.90
2022-08-22T04:37:56.992Z,99.90
2022-08-22T04:40:29.991Z,99.90
2022-08-22T04:43:06.279Z,99.90
2022-08-22T04:45:39.304Z,99.90
2022-08-22T04:48:12.465Z,99.90
2022-08-22T04:50:50.690Z,99.90
2022-08-22T04:53:49.438Z,99.90
2022-08-22T04:56:29.424Z,99.90
2022-08-22T04:59:01.197Z,99.90
2022-08-22T05:01:43.896Z,99.90
2022-08-22T05:04:18.431Z,99.90
2022-08-22T05:06:54.759Z,99.90
2022-08-22T05:09:28.789Z,99.90
2022-08-22T05:12:03.229Z,99.90
2022-08-22T05:14:39.981Z,99.90
2022-08-22T05:17:16.897Z,99.90
2022-08-22T05:19:51.388Z,99.90
2022-08-22T05:22:26.036Z,99.90
2022-08-22T05:25:00.760Z,99.90
2022-08-22T05:27:34.950Z,99.90
2022-08-22T05:30:09.114Z,99.90
2022-08-22T05:32:51.785Z,99.90
2022-08-22T05:35:26.157Z,99.90
2022-08-22T05:37:57.340Z,99.90
2022-08-22T05:40:30.278Z,99.90
2022-08-22T05:42:59.811Z,99.90
2022-08-22T05:45:29.721Z,99.90
2022-08-22T05:48:06.765Z,99.90
2022-08-22T05:50:40.823Z,99.90
2022-08-22T05:53:16.559Z,99.90
2022-08-22T05:55:58.822Z,99.90
2022-08-22T05:58:48.098Z,99.90
2022-08-22T06:01:33.793Z,99.90
2022-08-22T06:04:09.284Z,99.90
2022-08-22T06:06:44.312Z,99.90
2022-08-22T06:09:35.707Z,99.90
2022-08-22T06:12:21.914Z,99.90
2022-08-22T06:15:01.093Z,99.90
2022-08-22T06:17:36.455Z,99.90
2022-08-22T06:20:09.669Z,99.90
2022-08-22T06:22:46.891Z,99.90
2022-08-22T06:25:23.921Z,99.90
2022-08-22T06:27:53.920Z,99.90
2022-08-22T06:30:25.429Z,99.90
2022-08-22T06:33:01.014Z,99.90
2022-08-22T06:35:54.823Z,99.90
2022-08-22T06:38:33.402Z,99.90
2022-08-22T06:43:42.716Z,99.90
2022-08-22T06:46:12.276Z,99.90
2022-08-22T06:48:41.340Z,99.90
2022-08-22T06:51:12.465Z,99.90
2022-08-22T06:56:24.653Z,99.90
2022-08-22T06:58:58.108Z,99.90
2022-08-22T07:01:32.062Z,99.90
2022-08-22T07:04:07.374Z,99.90
2022-08-22T07:06:41.286Z,99.90
2022-08-22T07:09:24.444Z,99.90
2022-08-22T07:11:57.683Z,99.90
2022-08-22T07:14:32.627Z,99.90
2022-08-22T07:17:04.819Z,99.90
2022-08-22T07:19:36.943Z,99.90
2022-08-22T07:22:15.661Z,99.90
2022-08-22T07:24:52.139Z,99.90
2022-08-22T07:27:40.411Z,99.90
2022-08-22T07:30:12.895Z,99.90
2022-08-22T07:32:52.966Z,99.90
2022-08-22T07:35:25.927Z,99.90
2022-08-22T07:38:10.008Z,99.90
2022-08-22T07:40:48.392Z,99.90
2022-08-22T07:43:28.673Z,99.90
2022-08-22T07:46:01.517Z,99.90
2022-08-22T07:48:44.712Z,99.90
2022-08-22T07:51:34.855Z,99.90
2022-08-22T07:54:07.312Z,99.90
2022-08-22T07:56:39.957Z,99.90
2022-08-22T07:59:14.497Z,99.90
2022-08-22T08:01:47.791Z,99.90
2022-08-22T08:04:21.904Z,99.90
2022-08-22T08:06:52.728Z,99.90
2022-08-22T08:09:22.240Z,99.90
2022-08-22T08:11:54.603Z,99.90
2022-08-22T08:14:26.430Z,99.90
2022-08-22T08:17:02.371Z,99.90
2022-08-22T08:19:33.446Z,99.90
2022-08-22T08:22:02.491Z,99.90
2022-08-22T08:24:40.800Z,99.90
2022-08-22T08:27:35.672Z,99.90
2022-08-22T08:30:15.372Z,99.90
2022-08-22T08:35:23.706Z,99.90
2022-08-22T08:37:59.223Z,99.90
2022-08-22T08:41:13.876Z,99.90
2022-08-22T08:43:57.311Z,99.90
2022-08-22T08:46:57.488Z,99.90
2022-08-22T08:50:02.397Z,99.90
2022-08-22T08:52:52.540Z,99.90
2022-08-22T08:55:39.483Z,99.90
2022-08-22T08:58:35.071Z,99.90
2022-08-22T09:02:08.428Z,99.90
2022-08-22T09:05:17.036Z,99.90
2022-08-22T09:08:35.504Z,99.90
2022-08-22T09:12:02.666Z,99.90
2022-08-22T09:15:17.186Z,99.90
2022-08-22T09:18:23.280Z,98.70
2022-08-22T09:21:40.336Z,95.20
2022-08-22T09:24:48.277Z,95.30
2022-08-22T09:27:24.440Z,92.40
2022-08-22T09:30:00.587Z,98.30
2022-08-22T09:32:44.577Z,93.80
2022-08-22T09:35:26.729Z,95.20
2022-08-22T09:38:38.160Z,93.40
2022-08-22T09:41:24.607Z,95.20
2022-08-22T09:44:08.147Z,89.00
2022-08-22T09:46:56.293Z,92.30
2022-08-22T09:49:44.784Z,90.70
2022-08-22T09:52:44.496Z,99.90
2022-08-22T09:55:35.934Z,95.70
2022-08-22T09:58:27.785Z,92.90
2022-08-22T10:01:00.752Z,90.90
2022-08-22T10:03:49.532Z,92.70
2022-08-22T10:06:25.440Z,98.30
2022-08-22T10:09:04.902Z,99.90
2022-08-22T10:11:44.565Z,97.70
2022-08-22T10:14:22.038Z,99.90
2022-08-22T10:17:03.681Z,93.50
2022-08-22T10:19:39.411Z,94.50
2022-08-22T10:22:39.787Z,96.00
2022-08-22T10:25:28.438Z,90.90
2022-08-22T10:28:16.084Z,97.00
2022-08-22T10:31:00.490Z,91.70
2022-08-22T10:33:34.762Z,96.20
2022-08-22T10:36:11.707Z,94.50
2022-08-22T10:38:47.185Z,92.70
2022-08-22T10:41:30.583Z,88.60
2022-08-22T10:44:09.193Z,91.00
2022-08-22T10:46:46.210Z,87.10
2022-08-22T10:49:28.330Z,88.20
2022-08-22T10:52:15.276Z,90.20
2022-08-22T10:54:49.474Z,91.10
2022-08-22T10:57:41.287Z,90.90
2022-08-22T11:00:36.034Z,89.20
2022-08-22T11:03:21.796Z,87.80
2022-08-22T11:05:54.295Z,87.60
2022-08-22T11:09:14.977Z,88.50
2022-08-22T11:11:49.035Z,90.50
2022-08-22T11:14:57.659Z,88.60
2022-08-22T11:17:53.762Z,90.70
2022-08-22T11:20:29.568Z,86.40
2022-08-22T11:23:20.918Z,90.20
2022-08-22T11:26:01.337Z,89.90
2022-08-22T11:29:14.009Z,88.90
2022-08-22T11:31:54.891Z,89.60
2022-08-22T11:34:42.864Z,88.60
2022-08-22T11:37:42.692Z,87.50
2022-08-22T11:40:28.155Z,85.50
2022-08-22T11:43:12.023Z,91.00
2022-08-22T11:45:49.565Z,95.50
2022-08-22T11:48:26.763Z,89.20
2022-08-22T11:51:13.025Z,87.10
2022-08-22T11:53:48.499Z,89.50
2022-08-22T11:56:26.941Z,88.40
2022-08-22T11:59:02.559Z,91.20
2022-08-22T12:01:42.560Z,84.10
2022-08-22T12:04:21.583Z,82.60
2022-08-22T12:07:00.732Z,84.50
2022-08-22T12:09:48.154Z,90.80
2022-08-22T12:12:46.561Z,83.00
2022-08-22T12:15:21.472Z,82.90
2022-08-22T12:18:30.079Z,87.80
2022-08-22T12:21:49.643Z,80.30
2022-08-22T12:24:52.875Z,88.70
2022-08-22T12:27:48.250Z,84.30
2022-08-22T12:30:32.465Z,82.10
2022-08-22T12:33:33.026Z,82.80
2022-08-22T12:36:28.729Z,87.90
2022-08-22T12:39:29.522Z,89.40
2022-08-22T12:42:43.496Z,87.90
2022-08-22T12:45:50.793Z,84.20
2022-08-22T12:48:41.239Z,79.10
2022-08-22T12:51:31.570Z,80.60
2022-08-22T12:54:44.177Z,85.50
2022-08-22T12:57:27.549Z,78.10
2022-08-22T13:00:05.595Z,77.30
2022-08-22T13:02:39.448Z,78.40
2022-08-22T13:05:19.879Z,77.60
2022-08-22T13:07:56.090Z,75.30
2022-08-22T13:10:46.300Z,78.50
2022-08-22T13:13:31.664Z,77.80
2022-08-22T13:16:11.749Z,78.90
2022-08-22T13:18:53.557Z,82.50
2022-08-22T13:21:31.748Z,74.30
2022-08-22T13:24:11.111Z,75.30
2022-08-22T13:26:49.730Z,74.30
2022-08-22T13:29:27.465Z,80.10
2022-08-22T13:32:10.485Z,80.00
2022-08-22T13:34:45.966Z,79.80
2022-08-22T13:37:24.733Z,79.10
2022-08-22T13:40:00.082Z,79.80
2022-08-22T13:42:33.518Z,80.40
2022-08-22T13:45:12.197Z,79.40
2022-08-22T13:47:52.456Z,80.10
2022-08-22T13:50:25.167Z,78.60
2022-08-22T13:53:03.431Z,78.30
2022-08-22T13:55:42.917Z,80.00
2022-08-22T13:58:25.003Z,72.60
2022-08-22T14:01:28.815Z,78.40
2022-08-22T14:04:01.704Z,72.30
2022-08-22T14:06:43.925Z,72.90
2022-08-22T14:09:31.420Z,71.80
2022-08-22T14:12:14.826Z,76.50
2022-08-22T14:14:47.203Z,76.90
2022-08-22T14:17:20.945Z,77.40
2022-08-22T14:19:59.722Z,75.20
2022-08-22T14:22:35.375Z,77.60
2022-08-22T14:25:08.834Z,73.80
2022-08-22T14:27:40.542Z,76.70
2022-08-22T14:30:17.116Z,73.20
2022-08-22T14:32:54.578Z,72.20
2022-08-22T14:35:35.266Z,74.90
2022-08-22T14:38:30.002Z,73.80
2022-08-22T14:41:03.863Z,76.50
2022-08-22T14:43:52.339Z,73.90
2022-08-22T14:46:26.611Z,73.60
2022-08-22T14:49:25.281Z,71.70
2022-08-22T14:52:03.367Z,73.80
2022-08-22T14:54:33.766Z,78.30
2022-08-22T14:57:20.808Z,73.30
2022-08-22T14:59:53.051Z,75.20
2022-08-22T15:02:29.143Z,78.80
2022-08-22T15:05:13.139Z,77.20
2022-08-22T15:07:41.766Z,78.20
2022-08-22T15:10:23.317Z,71.60
2022-08-22T15:12:55.016Z,73.80
2022-08-22T15:15:49.259Z,72.40
2022-08-22T15:18:34.904Z,73.70
2022-08-22T15:21:12.319Z,73.20
2022-08-22T15:23:46.920Z,70.40
2022-08-22T15:26:26.235Z,71.60
2022-08-22T15:29:06.983Z,71.80
2022-08-22T15:31:39.751Z,71.20
2022-08-22T15:34:24.418Z,70.30
2022-08-22T15:37:29.620Z,71.20
2022-08-22T15:40:12.825Z,68.70
2022-08-22T15:42:46.100Z,70.30
2022-08-22T15:45:30.678Z,69.50
2022-08-22T15:48:04.769Z,68.30
2022-08-22T15:50:38.243Z,71.20
2022-08-22T15:53:23.982Z,69.50
2022-08-22T15:56:28.261Z,69.50
2022-08-22T15:59:47.704Z,71.60
2022-08-22T16:02:35.364Z,71.40
2022-08-22T16:05:27.394Z,71.80
2022-08-22T16:08:06.054Z,70.10
2022-08-22T16:10:42.647Z,70.20
2022-08-22T16:13:33.683Z,69.50
2022-08-22T16:16:08.103Z,69.20
2022-08-22T16:19:23.419Z,71.20
2022-08-22T16:22:15.993Z,70.80
2022-08-22T16:25:10.428Z,70.00
2022-08-22T16:27:55.566Z,69.50
2022-08-22T16:30:39.843Z,69.20
2022-08-22T16:33:18.005Z,70.60
2022-08-22T16:36:46.473Z,69.00
2022-08-22T16:39:40.266Z,69.10
2022-08-22T16:42:36.536Z,69.00
2022-08-22T16:45:20.117Z,68.90
2022-08-22T16:47:54.571Z,66.60
2022-08-22T16:50:35.674Z,65.80
2022-08-22T16:53:11.202Z,67.80
2022-08-22T16:56:04.760Z,68.80
2022-08-22T16:59:23.532Z,69.10
2022-08-22T17:02:26.041Z,70.60
2022-08-22T17:05:13.122Z,71.20
2022-08-22T17:08:03.702Z,71.70
2022-08-22T17:10:48.163Z,71.90
2022-08-22T17:13:32.799Z,71.20
2022-08-22T17:16:36.882Z,71.60
2022-08-22T17:19:20.887Z,72.50
2022-08-22T17:21:56.071Z,70.00
2022-08-22T17:24:36.956Z,66.50
2022-08-22T17:27:17.719Z,68.30
2022-08-22T17:30:01.480Z,66.50
2022-08-22T17:32:47.645Z,68.80
2022-08-22T17:36:01.359Z,69.10
2022-08-22T17:38:48.592Z,70.30
2022-08-22T17:41:34.889Z,68.80
2022-08-22T17:44:14.988Z,68.40
2022-08-22T17:46:52.959Z,70.60
2022-08-22T17:49:31.161Z,70.80
2022-08-22T17:52:10.642Z,70.70
2022-08-22T17:54:47.003Z,71.50
2022-08-22T17:57:28.149Z,72.70
2022-08-22T18:00:02.181Z,72.60
2022-08-22T18:02:39.583Z,72.90
2022-08-22T18:05:14.539Z,72.60
2022-08-22T18:08:07.797Z,76.20
2022-08-22T18:10:50.748Z,87.10
2022-08-22T18:13:38.151Z,90.10
2022-08-22T18:16:23.045Z,91.10
2022-08-22T18:19:01.916Z,92.30
2022-08-22T18:21:36.546Z,94.10
2022-08-22T18:24:25.362Z,98.00
2022-08-22T18:27:02.158Z,99.90
2022-08-22T18:29:43.494Z,99.90
2022-08-22T18:32:22.086Z,99.90
2022-08-22T18:35:04.348Z,99.90
2022-08-22T18:37:54.893Z,99.90
2022-08-22T18:40:35.042Z,99.90
2022-08-22T18:43:18.026Z,99.90
2022-08-22T18:46:04.508Z,99.90
2022-08-22T18:49:05.402Z,99.90
2022-08-22T18:51:38.199Z,99.90
2022-08-22T18:54:37.138Z,99.90
2022-08-22T18:57:38.713Z,99.90
2022-08-22T19:00:16.585Z,99.90
2022-08-22T19:03:20.892Z,99.90
2022-08-22T19:06:28.964Z,99.90
2022-08-22T19:09:48.854Z,99.90
2022-08-22T19:12:42.102Z,99.90
2022-08-22T19:15:29.690Z,99.90
2022-08-22T19:18:28.579Z,99.90
2022-08-22T19:21:43.046Z,99.90
2022-08-22T19:24:35.131Z,99.90
2022-08-22T19:27:30.926Z,99.90
2022-08-22T19:30:08.203Z,99.90
2022-08-22T19:33:08.795Z,99.90
2022-08-22T19:36:11.384Z,99.90
2022-08-22T19:39:00.074Z,99.90
2022-08-22T19:41:52.917Z,99.90
2022-08-22T19:44:42.303Z,99.90
2022-08-22T19:47:31.281Z,99.90
2022-08-22T19:50:08.426Z,99.90
2022-08-22T19:53:00.944Z,99.90
2022-08-22T19:55:51.411Z,99.90
2022-08-22T19:58:31.778Z,99.90
2022-08-22T20:01:13.085Z,99.90
2022-08-22T20:03:55.455Z,99.90
2022-08-22T20:06:47.813Z,99.90
2022-08-22T20:09:38.499Z,99.90
2022-08-22T20:12:15.833Z,99.90
2022-08-22T20:14:47.462Z,99.90
2022-08-22T20:17:43.708Z,99.90
2022-08-22T20:20:35.235Z,99.90
2022-08-22T20:23:12.924Z,99.90
2022-08-22T20:25:49.436Z,99.90
2022-08-22T20:28:45.588Z,99.90
2022-08-22T20:31:23.119Z,99.90
2022-08-22T20:34:04.353Z,99.90
2022-08-22T20:36:33.216Z,99.90
2022-08-22T20:39:08.735Z,99.90
2022-08-22T20:41:41.370Z,99.90
2022-08-22T20:44:17.624Z,99.90
2022-08-22T20:46:55.745Z,99.90
2022-08-22T20:49:29.643Z,99.90
2022-08-22T20:52:02.166Z,99.90
2022-08-22T20:54:33.276Z,99.90
2022-08-22T20:57:11.409Z,99.90
2022-08-22T20:59:43.067Z,99.90
2022-08-22T21:02:19.231Z,99.90
2022-08-22T21:05:00.192Z,99.90
2022-08-22T21:07:31.985Z,99.90
2022-08-22T21:10:23.124Z,99.90
2022-08-22T21:13:12.029Z,99.90
2022-08-22T21:15:44.858Z,99.90
2022-08-22T21:18:29.188Z,99.90
2022-08-22T21:21:17.042Z,99.90
2022-08-22T21:23:49.272Z,99.90
2022-08-22T21:26:26.141Z,99.90
2022-08-22T21:29:00.021Z,99.90
2022-08-22T21:31:32.366Z,99.90
2022-08-22T21:34:01.653Z,99.90
2022-08-22T21:36:32.974Z,99.90
2022-08-22T21:39:04.863Z,99.90
2022-08-22T21:41:41.133Z,99.90
2022-08-22T21:44:27.615Z,99.90
2022-08-22T21:46:57.794Z,99.90
2022-08-22T21:49:30.543Z,99.90
2022-08-22T21:52:00.286Z,99.90
2022-08-22T21:54:42.151Z,99.90
2022-08-22T21:57:37.588Z,99.90
2022-08-22T22:00:31.553Z,99.90
2022-08-22T22:03:02.896Z,99.90
2022-08-22T22:05:31.293Z,99.90
2022-08-22T22:07:59.632Z,99.90
2022-08-22T22:10:28.007Z,99.90
2022-08-22T22:12:59.693Z,99.90
2022-08-22T22:15:32.994Z,99.90
2022-08-22T22:18:02.582Z,99.90
2022-08-22T22:20:31.095Z,99.90
2022-08-22T22:22:59.938Z,99.90
2022-08-22T22:25:40.482Z,99.90
2022-08-22T22:28:14.701Z,99.90
2022-08-22T22:30:45.102Z,99.90
2022-08-22T22:33:14.715Z,99.90
2022-08-22T22:35:43.202Z,99.90
2022-08-22T22:38:12.384Z,99.90
2022-08-22T22:40:42.051Z,99.90
2022-08-22T22:43:11.185Z,99.90
2022-08-22T22:45:40.259Z,99.90
2022-08-22T22:48:09.175Z,99.90
2022-08-22T22:50:40.982Z,99.90
2022-08-22T22:53:09.562Z,99.90
2022-08-22T22:55:41.448Z,99.90
2022-08-22T22:58:10.367Z,99.90
2022-08-22T23:00:38.877Z,99.90
2022-08-22T23:03:07.546Z,99.90
2022-08-22T23:05:37.994Z,99.90
2022-08-22T23:08:06.298Z,99.90
2022-08-22T23:10:34.767Z,99.90
2022-08-22T23:13:03.116Z,99.90
2022-08-22T23:15:31.566Z,99.90
2022-08-22T23:17:59.952Z,99.90
2022-08-22T23:20:28.361Z,99.90
2022-08-22T23:22:59.518Z,99.90
2022-08-22T23:25:28.000Z,99.90
2022-08-22T23:27:57.417Z,99.90
2022-08-22T23:30:25.838Z,99.90
2022-08-22T23:32:55.724Z,99.90
2022-08-22T23:35:24.296Z,99.90
2022-08-22T23:37:52.777Z,99.90
2022-08-22T23:40:22.651Z,99.90
2022-08-22T23:42:51.042Z,99.90
2022-08-22T23:45:21.529Z,99.90
2022-08-22T23:47:50.129Z,99.90
2022-08-22T23:50:18.590Z,99.90
2022-08-22T23:52:47.136Z,99.90
2022-08-22T23:55:15.490Z,99.90
2022-08-22T23:57:45.185Z,99.90
